sensor_id;sensor_type;location;lat;lon;timestamp;pressure;altitude;pressure_sealevel;temperature;humidity
62739;BME280;48788;48.074;13.000;2023-12-20T00:01:00;95546.03;;;0.73;100.00
62739;BME280;48788;48.074;13.000;2023-12-20T00:03:31;95543.72;;;0.70;100.00
62739;BME280;48788;48.074;13.000;2023-12-20T00:06:03;95532.94;;;0.65;100.00
62739;BME280;48788;48.074;13.000;2023-12-20T00:08:35;95528.00;;;0.62;100.00
62739;BME280;48788;48.074;13.000;2023-12-20T00:11:06;95526.16;;;0.55;100.00
62739;BME280;48788;48.074;13.000;2023-12-20T00:13:43;95525.28;;;0.46;100.00
62739;BME280;48788;48.074;13.000;2023-12-20T00:16:14;95536.19;;;0.67;100.00
62739;BME280;48788;48.074;13.000;2023-12-20T00:18:46;95526.19;;;0.81;100.00
62739;BME280;48788;48.074;13.000;2023-12-20T00:21:17;95520.84;;;1.16;100.00
62739;BME280;48788;48.074;13.000;2023-12-20T00:23:49;95521.94;;;1.31;100.00
62739;BME280;48788;48.074;13.000;2023-12-20T00:26:20;95531.25;;;1.34;100.00
62739;BME280;48788;48.074;13.000;2023-12-20T00:28:59;95519.81;;;1.35;100.00
62739;BME280;48788;48.074;13.000;2023-12-20T00:31:30;95509.38;;;1.35;100.00
62739;BME280;48788;48.074;13.000;2023-12-20T00:34:01;95505.47;;;1.31;100.00
62739;BME280;48788;48.074;13.000;2023-12-20T00:36:33;95501.63;;;1.17;100.00
62739;BME280;48788;48.074;13.000;2023-12-20T00:39:04;95490.44;;;0.99;100.00
62739;BME280;48788;48.074;13.000;2023-12-20T00:41:36;95484.41;;;0.98;100.00
62739;BME280;48788;48.074;13.000;2023-12-20T00:44:12;95478.34;;;0.98;100.00
62739;BME280;48788;48.074;13.000;2023-12-20T00:46:44;95470.56;;;1.06;100.00
62739;BME280;48788;48.074;13.000;2023-12-20T00:49:15;95468.88;;;1.23;100.00
62739;BME280;48788;48.074;13.000;2023-12-20T00:51:47;95464.31;;;1.25;100.00
62739;BME280;48788;48.074;13.000;2023-12-20T00:54:18;95458.44;;;1.23;100.00
62739;BME280;48788;48.074;13.000;2023-12-20T00:56:50;95443.97;;;1.36;100.00
62739;BME280;48788;48.074;13.000;2023-12-20T00:59:26;95453.00;;;1.50;100.00
62739;BME280;48788;48.074;13.000;2023-12-20T01:01:58;95452.19;;;1.49;100.00
62739;BME280;48788;48.074;13.000;2023-12-20T01:04:30;95445.69;;;1.62;100.00
62739;BME280;48788;48.074;13.000;2023-12-20T01:07:01;95433.78;;;1.75;100.00
62739;BME280;48788;48.074;13.000;2023-12-20T01:09:32;95436.91;;;1.79;100.00
62739;BME280;48788;48.074;13.000;2023-12-20T01:12:04;95428.56;;;1.83;100.00
62739;BME280;48788;48.074;13.000;2023-12-20T01:14:41;95419.00;;;1.92;100.00
62739;BME280;48788;48.074;13.000;2023-12-20T01:17:13;95418.31;;;1.98;100.00
62739;BME280;48788;48.074;13.000;2023-12-20T01:19:44;95418.16;;;2.00;100.00
62739;BME280;48788;48.074;13.000;2023-12-20T01:22:16;95411.97;;;2.01;100.00
62739;BME280;48788;48.074;13.000;2023-12-20T01:24:47;95412.78;;;2.09;100.00
62739;BME280;48788;48.074;13.000;2023-12-20T01:27:18;95413.44;;;2.19;100.00
62739;BME280;48788;48.074;13.000;2023-12-20T01:29:55;95416.06;;;2.19;100.00
62739;BME280;48788;48.074;13.000;2023-12-20T01:32:26;95410.16;;;2.26;100.00
62739;BME280;48788;48.074;13.000;2023-12-20T01:34:58;95404.78;;;2.27;100.00
62739;BME280;48788;48.074;13.000;2023-12-20T01:37:29;95406.06;;;2.23;100.00
62739;BME280;48788;48.074;13.000;2023-12-20T01:40:01;95412.78;;;2.34;100.00
62739;BME280;48788;48.074;13.000;2023-12-20T01:42:33;95400.53;;;2.34;100.00
62739;BME280;48788;48.074;13.000;2023-12-20T01:45:10;95394.16;;;2.37;100.00
62739;BME280;48788;48.074;13.000;2023-12-20T01:47:42;95385.66;;;2.35;100.00
62739;BME280;48788;48.074;13.000;2023-12-20T01:50:13;95391.88;;;2.26;100.00
62739;BME280;48788;48.074;13.000;2023-12-20T01:52:45;95372.28;;;2.30;100.00
62739;BME280;48788;48.074;13.000;2023-12-20T01:55:18;95379.94;;;2.23;100.00
62739;BME280;48788;48.074;13.000;2023-12-20T01:57:50;95365.25;;;2.14;100.00
62739;BME280;48788;48.074;13.000;2023-12-20T02:00:28;95358.06;;;2.16;100.00
62739;BME280;48788;48.074;13.000;2023-12-20T02:03:01;95350.88;;;2.18;100.00
62739;BME280;48788;48.074;13.000;2023-12-20T02:05:35;95350.34;;;2.22;100.00
62739;BME280;48788;48.074;13.000;2023-12-20T02:08:07;95343.03;;;2.18;100.00
62739;BME280;48788;48.074;13.000;2023-12-20T02:10:39;95341.06;;;2.20;100.00
62739;BME280;48788;48.074;13.000;2023-12-20T02:13:11;95347.28;;;2.27;100.00
62739;BME280;48788;48.074;13.000;2023-12-20T02:15:48;95344.66;;;2.19;100.00
62739;BME280;48788;48.074;13.000;2023-12-20T02:18:19;95343.03;;;2.10;100.00
62739;BME280;48788;48.074;13.000;2023-12-20T02:20:50;95342.06;;;2.19;100.00
62739;BME280;48788;48.074;13.000;2023-12-20T02:23:27;95353.34;;;2.11;100.00
62739;BME280;48788;48.074;13.000;2023-12-20T02:25:59;95336.66;;;2.04;100.00
62739;BME280;48788;48.074;13.000;2023-12-20T02:28:30;95329.66;;;1.97;100.00
62739;BME280;48788;48.074;13.000;2023-12-20T02:31:03;95328.84;;;1.96;100.00
62739;BME280;48788;48.074;13.000;2023-12-20T02:33:34;95331.44;;;1.88;100.00
62739;BME280;48788;48.074;13.000;2023-12-20T02:36:07;95335.69;;;1.89;100.00
62739;BME280;48788;48.074;13.000;2023-12-20T02:38:44;95322.13;;;1.94;100.00
62739;BME280;48788;48.074;13.000;2023-12-20T02:41:16;95322.13;;;1.94;100.00
62739;BME280;48788;48.074;13.000;2023-12-20T02:43:47;95315.75;;;1.96;100.00
62739;BME280;48788;48.074;13.000;2023-12-20T02:46:19;95317.06;;;2.08;100.00
62739;BME280;48788;48.074;13.000;2023-12-20T02:48:50;95317.53;;;2.12;100.00
62739;BME280;48788;48.074;13.000;2023-12-20T02:51:22;95329.31;;;2.16;100.00
62739;BME280;48788;48.074;13.000;2023-12-20T02:53:58;95324.72;;;2.26;100.00
62739;BME280;48788;48.074;13.000;2023-12-20T02:56:30;95325.84;;;2.32;100.00
62739;BME280;48788;48.074;13.000;2023-12-20T02:59:01;95320.31;;;2.27;100.00
62739;BME280;48788;48.074;13.000;2023-12-20T03:01:34;95316.06;;;2.26;100.00
62739;BME280;48788;48.074;13.000;2023-12-20T03:04:06;95318.34;;;2.29;100.00
62739;BME280;48788;48.074;13.000;2023-12-20T03:06:37;95303.63;;;2.36;100.00
62739;BME280;48788;48.074;13.000;2023-12-20T03:09:14;95298.38;;;2.44;100.00
62739;BME280;48788;48.074;13.000;2023-12-20T03:11:45;95295.88;;;2.50;100.00
62739;BME280;48788;48.074;13.000;2023-12-20T03:14:17;95282.66;;;2.52;100.00
62739;BME280;48788;48.074;13.000;2023-12-20T03:16:49;95289.47;;;2.61;100.00
62739;BME280;48788;48.074;13.000;2023-12-20T03:19:21;95280.00;;;2.68;100.00
62739;BME280;48788;48.074;13.000;2023-12-20T03:21:53;95285.97;;;2.85;100.00
62739;BME280;48788;48.074;13.000;2023-12-20T03:24:31;95282.50;;;2.92;100.00
62739;BME280;48788;48.074;13.000;2023-12-20T03:27:03;95287.84;;;2.99;100.00
62739;BME280;48788;48.074;13.000;2023-12-20T03:29:35;95281.72;;;3.15;100.00
62739;BME280;48788;48.074;13.000;2023-12-20T03:32:06;95292.53;;;3.43;100.00
62739;BME280;48788;48.074;13.000;2023-12-20T03:34:38;95283.88;;;3.57;100.00
62739;BME280;48788;48.074;13.000;2023-12-20T03:37:09;95284.59;;;3.73;97.56
62739;BME280;48788;48.074;13.000;2023-12-20T03:39:46;95292.91;;;3.77;96.08
62739;BME280;48788;48.074;13.000;2023-12-20T03:42:17;95295.75;;;3.90;92.50
62739;BME280;48788;48.074;13.000;2023-12-20T03:44:49;95290.44;;;3.98;91.45
62739;BME280;48788;48.074;13.000;2023-12-20T03:47:20;95288.41;;;4.08;90.59
62739;BME280;48788;48.074;13.000;2023-12-20T03:49:51;95291.28;;;4.14;90.97
62739;BME280;48788;48.074;13.000;2023-12-20T03:52:23;95276.28;;;4.07;88.36
62739;BME280;48788;48.074;13.000;2023-12-20T03:54:59;95281.34;;;4.09;88.19
62739;BME280;48788;48.074;13.000;2023-12-20T03:57:31;95267.25;;;4.10;87.02
62739;BME280;48788;48.074;13.000;2023-12-20T04:00:03;95273.75;;;4.14;88.74
62739;BME280;48788;48.074;13.000;2023-12-20T04:02:36;95286.03;;;4.14;88.74
62739;BME280;48788;48.074;13.000;2023-12-20T04:05:08;95284.59;;;4.11;88.67
62739;BME280;48788;48.074;13.000;2023-12-20T04:07:39;95289.72;;;4.04;89.04
62739;BME280;48788;48.074;13.000;2023-12-20T04:10:16;95283.63;;;4.12;86.33
62739;BME280;48788;48.074;13.000;2023-12-20T04:12:47;95286.34;;;4.19;88.00
62739;BME280;48788;48.074;13.000;2023-12-20T04:15:20;95287.63;;;4.23;86.14
62739;BME280;48788;48.074;13.000;2023-12-20T04:17:51;95288.47;;;4.15;86.94
62739;BME280;48788;48.074;13.000;2023-12-20T04:20:23;95290.94;;;4.17;88.47
62739;BME280;48788;48.074;13.000;2023-12-20T04:22:54;95292.09;;;4.14;87.56
62739;BME280;48788;48.074;13.000;2023-12-20T04:25:31;95294.09;;;4.12;88.13
62739;BME280;48788;48.074;13.000;2023-12-20T04:28:03;95295.00;;;4.19;87.24
62739;BME280;48788;48.074;13.000;2023-12-20T04:30:34;95311.50;;;4.28;85.84
62739;BME280;48788;48.074;13.000;2023-12-20T04:33:06;95312.66;;;4.25;84.89
62739;BME280;48788;48.074;13.000;2023-12-20T04:35:37;95308.94;;;4.20;85.01
62739;BME280;48788;48.074;13.000;2023-12-20T04:38:11;95327.56;;;4.25;85.08
62739;BME280;48788;48.074;13.000;2023-12-20T04:40:48;95323.44;;;4.30;85.57
62739;BME280;48788;48.074;13.000;2023-12-20T04:43:19;95331.00;;;4.25;87.00
62739;BME280;48788;48.074;13.000;2023-12-20T04:45:50;95334.56;;;4.32;85.24
62739;BME280;48788;48.074;13.000;2023-12-20T04:48:22;95337.19;;;4.32;86.07
62739;BME280;48788;48.074;13.000;2023-12-20T04:50:53;95339.81;;;4.32;84.81
62739;BME280;48788;48.074;13.000;2023-12-20T04:53:25;95342.59;;;4.31;85.29
62739;BME280;48788;48.074;13.000;2023-12-20T04:56:02;95343.06;;;4.34;86.60
62739;BME280;48788;48.074;13.000;2023-12-20T04:58:33;95348.13;;;4.36;86.53
62739;BME280;48788;48.074;13.000;2023-12-20T05:01:05;95361.25;;;4.36;87.64
62739;BME280;48788;48.074;13.000;2023-12-20T05:03:37;95354.25;;;4.28;88.40
62739;BME280;48788;48.074;13.000;2023-12-20T05:06:09;95359.09;;;4.39;88.00
62739;BME280;48788;48.074;13.000;2023-12-20T05:08:40;95371.81;;;4.42;88.86
62739;BME280;48788;48.074;13.000;2023-12-20T05:11:17;95371.34;;;4.24;90.44
62739;BME280;48788;48.074;13.000;2023-12-20T05:13:49;95376.56;;;4.24;91.18
62739;BME280;48788;48.074;13.000;2023-12-20T05:16:20;95377.53;;;4.31;89.67
62739;BME280;48788;48.074;13.000;2023-12-20T05:18:51;95366.81;;;4.33;91.86
62739;BME280;48788;48.074;13.000;2023-12-20T05:21:24;95375.34;;;4.35;91.23
62739;BME280;48788;48.074;13.000;2023-12-20T05:23:56;95372.31;;;4.23;93.83
62739;BME280;48788;48.074;13.000;2023-12-20T05:26:33;95366.38;;;4.29;93.59
62739;BME280;48788;48.074;13.000;2023-12-20T05:29:04;95373.94;;;4.24;94.67
62739;BME280;48788;48.074;13.000;2023-12-20T05:31:36;95384.41;;;4.32;95.21
62739;BME280;48788;48.074;13.000;2023-12-20T05:34:07;95380.88;;;4.40;94.72
62739;BME280;48788;48.074;13.000;2023-12-20T05:36:38;95384.66;;;4.37;96.46
62739;BME280;48788;48.074;13.000;2023-12-20T05:39:10;95383.50;;;4.40;96.94
62739;BME280;48788;48.074;13.000;2023-12-20T05:41:46;95382.06;;;4.37;96.88
62739;BME280;48788;48.074;13.000;2023-12-20T05:44:18;95393.34;;;4.38;96.53
62739;BME280;48788;48.074;13.000;2023-12-20T05:46:49;95386.81;;;4.34;97.90
62739;BME280;48788;48.074;13.000;2023-12-20T05:49:21;95393.06;;;4.33;98.56
62739;BME280;48788;48.074;13.000;2023-12-20T05:51:52;95397.28;;;4.42;97.87
62739;BME280;48788;48.074;13.000;2023-12-20T05:54:24;95393.81;;;4.41;98.56
62739;BME280;48788;48.074;13.000;2023-12-20T05:57:00;95395.69;;;4.33;100.00
62739;BME280;48788;48.074;13.000;2023-12-20T05:59:32;95390.56;;;4.39;99.91
62739;BME280;48788;48.074;13.000;2023-12-20T06:02:04;95396.56;;;4.25;100.00
62739;BME280;48788;48.074;13.000;2023-12-20T06:04:35;95401.38;;;3.99;100.00
62739;BME280;48788;48.074;13.000;2023-12-20T06:07:06;95407.88;;;3.80;100.00
62739;BME280;48788;48.074;13.000;2023-12-20T06:09:38;95405.16;;;3.65;100.00
62739;BME280;48788;48.074;13.000;2023-12-20T06:12:15;95414.84;;;3.65;100.00
62739;BME280;48788;48.074;13.000;2023-12-20T06:14:47;95417.31;;;3.58;100.00
62739;BME280;48788;48.074;13.000;2023-12-20T06:17:18;95425.91;;;3.44;100.00
62739;BME280;48788;48.074;13.000;2023-12-20T06:19:50;95425.16;;;3.27;100.00
62739;BME280;48788;48.074;13.000;2023-12-20T06:22:21;95425.84;;;3.21;100.00
62739;BME280;48788;48.074;13.000;2023-12-20T06:24:52;95436.00;;;3.16;100.00
62739;BME280;48788;48.074;13.000;2023-12-20T06:27:29;95441.25;;;3.08;100.00
62739;BME280;48788;48.074;13.000;2023-12-20T06:30:01;95426.06;;;3.04;100.00
62739;BME280;48788;48.074;13.000;2023-12-20T06:32:32;95439.50;;;2.92;100.00
62739;BME280;48788;48.074;13.000;2023-12-20T06:35:06;95437.41;;;2.88;100.00
62739;BME280;48788;48.074;13.000;2023-12-20T06:37:37;95437.06;;;2.83;100.00
62739;BME280;48788;48.074;13.000;2023-12-20T06:40:09;95445.56;;;2.85;100.00
62739;BME280;48788;48.074;13.000;2023-12-20T06:42:47;95442.31;;;2.83;100.00
62739;BME280;48788;48.074;13.000;2023-12-20T06:45:18;95448.66;;;2.88;100.00
62739;BME280;48788;48.074;13.000;2023-12-20T06:47:49;95451.47;;;2.87;100.00
62739;BME280;48788;48.074;13.000;2023-12-20T06:50:21;95457.31;;;2.89;100.00
62739;BME280;48788;48.074;13.000;2023-12-20T06:52:53;95453.09;;;2.96;100.00
62739;BME280;48788;48.074;13.000;2023-12-20T06:55:24;95465.34;;;2.95;100.00
62739;BME280;48788;48.074;13.000;2023-12-20T06:58:01;95467.97;;;2.95;100.00
62739;BME280;48788;48.074;13.000;2023-12-20T07:00:34;95463.56;;;2.96;100.00
62739;BME280;48788;48.074;13.000;2023-12-20T07:03:05;95479.56;;;2.93;100.00
62739;BME280;48788;48.074;13.000;2023-12-20T07:05:37;95479.25;;;2.96;100.00
62739;BME280;48788;48.074;13.000;2023-12-20T07:08:08;95474.31;;;3.01;100.00
62739;BME280;48788;48.074;13.000;2023-12-20T07:10:41;95486.13;;;2.97;100.00
62739;BME280;48788;48.074;13.000;2023-12-20T07:13:18;95488.91;;;2.95;100.00
62739;BME280;48788;48.074;13.000;2023-12-20T07:15:50;95497.22;;;2.99;100.00
62739;BME280;48788;48.074;13.000;2023-12-20T07:18:21;95492.50;;;2.94;100.00
62739;BME280;48788;48.074;13.000;2023-12-20T07:20:53;95489.06;;;2.94;100.00
62739;BME280;48788;48.074;13.000;2023-12-20T07:23:24;95494.63;;;2.91;100.00
62739;BME280;48788;48.074;13.000;2023-12-20T07:25:56;95511.47;;;2.96;100.00
62739;BME280;48788;48.074;13.000;2023-12-20T07:28:33;95509.84;;;2.95;100.00
62739;BME280;48788;48.074;13.000;2023-12-20T07:31:04;95513.41;;;3.03;100.00
62739;BME280;48788;48.074;13.000;2023-12-20T07:33:36;95520.44;;;3.02;100.00
62739;BME280;48788;48.074;13.000;2023-12-20T07:36:07;95519.63;;;3.02;100.00
62739;BME280;48788;48.074;13.000;2023-12-20T07:38:39;95518.81;;;3.01;100.00
62739;BME280;48788;48.074;13.000;2023-12-20T07:41:10;95526.34;;;3.04;100.00
62739;BME280;48788;48.074;13.000;2023-12-20T07:43:47;95528.13;;;3.12;100.00
62739;BME280;48788;48.074;13.000;2023-12-20T07:46:20;95527.97;;;3.13;100.00
62739;BME280;48788;48.074;13.000;2023-12-20T07:48:53;95532.22;;;3.14;100.00
62739;BME280;48788;48.074;13.000;2023-12-20T07:51:25;95534.50;;;3.09;100.00
62739;BME280;48788;48.074;13.000;2023-12-20T07:53:56;95532.06;;;3.16;100.00
62739;BME280;48788;48.074;13.000;2023-12-20T07:56:29;95546.78;;;3.17;100.00
62739;BME280;48788;48.074;13.000;2023-12-20T07:59:05;95545.31;;;3.14;100.00
62739;BME280;48788;48.074;13.000;2023-12-20T08:01:37;95537.94;;;3.18;100.00
62739;BME280;48788;48.074;13.000;2023-12-20T08:04:08;95545.63;;;3.19;100.00
62739;BME280;48788;48.074;13.000;2023-12-20T08:06:40;95541.19;;;3.28;100.00
62739;BME280;48788;48.074;13.000;2023-12-20T08:09:11;95545.94;;;3.24;100.00
62739;BME280;48788;48.074;13.000;2023-12-20T08:11:45;95549.03;;;3.28;100.00
62739;BME280;48788;48.074;13.000;2023-12-20T08:14:21;95553.94;;;3.31;100.00
62739;BME280;48788;48.074;13.000;2023-12-20T08:16:53;95558.22;;;3.32;100.00
62739;BME280;48788;48.074;13.000;2023-12-20T08:19:24;95558.88;;;3.26;100.00
62739;BME280;48788;48.074;13.000;2023-12-20T08:21:55;95553.13;;;3.30;100.00
62739;BME280;48788;48.074;13.000;2023-12-20T08:24:27;95550.19;;;3.33;100.00
62739;BME280;48788;48.074;13.000;2023-12-20T08:26:59;95566.22;;;3.30;100.00
62739;BME280;48788;48.074;13.000;2023-12-20T08:29:36;95572.28;;;3.31;100.00
62739;BME280;48788;48.074;13.000;2023-12-20T08:32:07;95564.09;;;3.34;100.00
62739;BME280;48788;48.074;13.000;2023-12-20T08:34:38;95567.38;;;3.28;100.00
62739;BME280;48788;48.074;13.000;2023-12-20T08:37:10;95573.59;;;3.27;100.00
62739;BME280;48788;48.074;13.000;2023-12-20T08:39:41;95579.81;;;3.34;100.00
62739;BME280;48788;48.074;13.000;2023-12-20T08:42:13;95578.50;;;3.30;100.00
62739;BME280;48788;48.074;13.000;2023-12-20T08:44:50;95582.28;;;3.35;100.00
62739;BME280;48788;48.074;13.000;2023-12-20T08:47:22;95585.38;;;3.31;100.00
62739;BME280;48788;48.074;13.000;2023-12-20T08:49:53;95582.44;;;3.26;100.00
62739;BME280;48788;48.074;13.000;2023-12-20T08:52:25;95582.44;;;3.26;100.00
62739;BME280;48788;48.074;13.000;2023-12-20T08:54:57;95583.28;;;3.26;100.00
62739;BME280;48788;48.074;13.000;2023-12-20T08:57:28;95583.91;;;3.28;100.00
62739;BME280;48788;48.074;13.000;2023-12-20T09:00:06;95578.66;;;3.36;100.00
62739;BME280;48788;48.074;13.000;2023-12-20T09:02:38;95590.59;;;3.39;100.00
62739;BME280;48788;48.074;13.000;2023-12-20T09:05:09;95591.28;;;3.25;100.00
62739;BME280;48788;48.074;13.000;2023-12-20T09:07:41;95587.50;;;3.27;100.00
62739;BME280;48788;48.074;13.000;2023-12-20T09:10:12;95589.97;;;3.29;100.00
62739;BME280;48788;48.074;13.000;2023-12-20T09:12:47;95586.88;;;3.25;100.00
62739;BME280;48788;48.074;13.000;2023-12-20T09:15:27;95585.38;;;3.23;100.00
62739;BME280;48788;48.074;13.000;2023-12-20T09:17:59;95580.16;;;3.23;100.00
62739;BME280;48788;48.074;13.000;2023-12-20T09:20:31;95597.50;;;3.16;100.00
62739;BME280;48788;48.074;13.000;2023-12-20T09:23:02;95591.44;;;3.23;100.00
62739;BME280;48788;48.074;13.000;2023-12-20T09:25:34;95585.38;;;3.23;100.00
62739;BME280;48788;48.074;13.000;2023-12-20T09:28:05;95581.44;;;3.27;100.00
62739;BME280;48788;48.074;13.000;2023-12-20T09:30:42;95578.84;;;3.19;100.00
62739;BME280;48788;48.074;13.000;2023-12-20T09:33:14;95577.69;;;3.21;100.00
62739;BME280;48788;48.074;13.000;2023-12-20T09:35:45;95589.50;;;3.25;100.00
62739;BME280;48788;48.074;13.000;2023-12-20T09:38:17;95589.47;;;3.17;100.00
62739;BME280;48788;48.074;13.000;2023-12-20T09:40:48;95581.28;;;3.20;100.00
62739;BME280;48788;48.074;13.000;2023-12-20T09:43:23;95574.56;;;3.34;100.00
62739;BME280;48788;48.074;13.000;2023-12-20T09:46:02;95564.91;;;3.34;100.00
62739;BME280;48788;48.074;13.000;2023-12-20T09:48:36;95572.75;;;3.43;100.00
62739;BME280;48788;48.074;13.000;2023-12-20T09:51:08;95567.81;;;3.48;100.00
62739;BME280;48788;48.074;13.000;2023-12-20T09:53:40;95569.31;;;3.42;100.00
62739;BME280;48788;48.074;13.000;2023-12-20T09:56:13;95569.97;;;3.44;100.00
62739;BME280;48788;48.074;13.000;2023-12-20T09:58:44;95557.88;;;3.43;100.00
62739;BME280;48788;48.074;13.000;2023-12-20T10:01:21;95564.75;;;3.36;100.00
62739;BME280;48788;48.074;13.000;2023-12-20T10:03:54;95552.00;;;3.33;100.00
62739;BME280;48788;48.074;13.000;2023-12-20T10:06:26;95564.44;;;3.31;100.00
62739;BME280;48788;48.074;13.000;2023-12-20T10:08:57;95567.19;;;3.38;100.00
62739;BME280;48788;48.074;13.000;2023-12-20T10:11:29;95549.53;;;3.31;100.00
62739;BME280;48788;48.074;13.000;2023-12-20T10:14:01;95543.63;;;3.29;100.00
62739;BME280;48788;48.074;13.000;2023-12-20T10:16:38;95532.84;;;3.32;100.00
62739;BME280;48788;48.074;13.000;2023-12-20T10:19:09;95543.47;;;3.31;100.00
62739;BME280;48788;48.074;13.000;2023-12-20T10:21:41;95546.25;;;3.29;100.00
62739;BME280;48788;48.074;13.000;2023-12-20T10:24:17;95539.84;;;3.40;100.00
62739;BME280;48788;48.074;13.000;2023-12-20T10:27:01;95541.50;;;3.33;100.00
62739;BME280;48788;48.074;13.000;2023-12-20T10:29:33;95547.06;;;3.38;100.00
62739;BME280;48788;48.074;13.000;2023-12-20T10:32:29;95551.00;;;3.34;100.00
62739;BME280;48788;48.074;13.000;2023-12-20T10:35:10;95525.63;;;3.34;100.00
62739;BME280;48788;48.074;13.000;2023-12-20T10:37:42;95533.66;;;3.33;100.00
62739;BME280;48788;48.074;13.000;2023-12-20T10:40:13;95529.25;;;3.25;100.00
62739;BME280;48788;48.074;13.000;2023-12-20T10:42:45;95526.78;;;3.32;100.00
62739;BME280;48788;48.074;13.000;2023-12-20T10:45:17;95529.69;;;3.37;100.00
62739;BME280;48788;48.074;13.000;2023-12-20T10:47:49;95518.94;;;3.32;100.00
62739;BME280;48788;48.074;13.000;2023-12-20T10:50:26;95516.13;;;3.42;100.00
62739;BME280;48788;48.074;13.000;2023-12-20T10:52:58;95514.66;;;3.39;100.00
62739;BME280;48788;48.074;13.000;2023-12-20T10:55:30;95518.88;;;3.48;100.00
62739;BME280;48788;48.074;13.000;2023-12-20T10:58:03;95507.16;;;3.36;100.00
62739;BME280;48788;48.074;13.000;2023-12-20T11:00:39;95510.25;;;3.31;100.00
62739;BME280;48788;48.074;13.000;2023-12-20T11:03:12;95503.88;;;3.34;100.00
62739;BME280;48788;48.074;13.000;2023-12-20T11:05:54;95504.34;;;3.38;100.00
62739;BME280;48788;48.074;13.000;2023-12-20T11:08:45;95500.44;;;3.33;100.00
62739;BME280;48788;48.074;13.000;2023-12-20T11:11:34;95500.69;;;3.47;100.00
62739;BME280;48788;48.074;13.000;2023-12-20T11:14:07;95504.13;;;3.47;100.00
62739;BME280;48788;48.074;13.000;2023-12-20T11:16:40;95505.81;;;3.40;100.00
62739;BME280;48788;48.074;13.000;2023-12-20T11:19:12;95506.78;;;3.39;100.00
62739;BME280;48788;48.074;13.000;2023-12-20T11:21:46;95500.41;;;3.42;100.00
62739;BME280;48788;48.074;13.000;2023-12-20T11:24:21;95514.28;;;3.50;100.00
62739;BME280;48788;48.074;13.000;2023-12-20T11:27:01;95498.72;;;3.49;100.00
62739;BME280;48788;48.074;13.000;2023-12-20T11:29:33;95493.84;;;3.46;100.00
62739;BME280;48788;48.074;13.000;2023-12-20T11:32:29;95489.41;;;3.46;100.00
62739;BME280;48788;48.074;13.000;2023-12-20T11:35:22;95491.69;;;3.49;100.00
62739;BME280;48788;48.074;13.000;2023-12-20T11:38:04;95494.00;;;3.52;100.00
62739;BME280;48788;48.074;13.000;2023-12-20T11:40:35;95499.72;;;3.48;100.00
62739;BME280;48788;48.074;13.000;2023-12-20T11:43:07;95494.63;;;3.54;100.00
62739;BME280;48788;48.074;13.000;2023-12-20T11:45:49;95489.53;;;3.61;100.00
62739;BME280;48788;48.074;13.000;2023-12-20T11:48:21;95490.72;;;3.50;100.00
62739;BME280;48788;48.074;13.000;2023-12-20T11:50:53;95479.59;;;3.48;100.00
62739;BME280;48788;48.074;13.000;2023-12-20T11:53:30;95481.72;;;3.53;100.00
62739;BME280;48788;48.074;13.000;2023-12-20T11:56:03;95491.38;;;3.52;100.00
62739;BME280;48788;48.074;13.000;2023-12-20T11:58:35;95480.84;;;3.60;100.00
62739;BME280;48788;48.074;13.000;2023-12-20T12:01:07;95488.38;;;3.63;100.00
62739;BME280;48788;48.074;13.000;2023-12-20T12:03:38;95473.34;;;3.49;100.00
62739;BME280;48788;48.074;13.000;2023-12-20T12:06:09;95462.88;;;3.49;100.00
62739;BME280;48788;48.074;13.000;2023-12-20T12:08:46;95468.25;;;3.56;100.00
62739;BME280;48788;48.074;13.000;2023-12-20T12:11:18;95467.75;;;3.60;100.00
62739;BME280;48788;48.074;13.000;2023-12-20T12:13:50;95471.47;;;3.66;100.00
62739;BME280;48788;48.074;13.000;2023-12-20T12:16:22;95468.03;;;3.65;100.00
62739;BME280;48788;48.074;13.000;2023-12-20T12:18:56;95473.13;;;3.67;100.00
62739;BME280;48788;48.074;13.000;2023-12-20T12:21:28;95474.59;;;3.69;100.00
62739;BME280;48788;48.074;13.000;2023-12-20T12:24:12;95477.00;;;3.79;100.00
62739;BME280;48788;48.074;13.000;2023-12-20T12:26:50;95471.28;;;3.76;100.00
62739;BME280;48788;48.074;13.000;2023-12-20T12:29:21;95466.84;;;3.76;100.00
62739;BME280;48788;48.074;13.000;2023-12-20T12:31:52;95458.47;;;3.81;100.00
62739;BME280;48788;48.074;13.000;2023-12-20T12:34:24;95465.38;;;3.82;100.00
62739;BME280;48788;48.074;13.000;2023-12-20T12:36:56;95457.78;;;3.87;100.00
62739;BME280;48788;48.074;13.000;2023-12-20T12:39:34;95467.28;;;3.88;100.00
62739;BME280;48788;48.074;13.000;2023-12-20T12:42:05;95465.81;;;3.85;100.00
62739;BME280;48788;48.074;13.000;2023-12-20T12:44:37;95466.00;;;3.84;100.00
62739;BME280;48788;48.074;13.000;2023-12-20T12:47:08;95459.47;;;3.80;100.00
62739;BME280;48788;48.074;13.000;2023-12-20T12:49:40;95461.88;;;3.89;100.00
62739;BME280;48788;48.074;13.000;2023-12-20T12:52:12;95454.06;;;3.81;100.00
62739;BME280;48788;48.074;13.000;2023-12-20T12:54:49;95456.47;;;3.91;100.00
62739;BME280;48788;48.074;13.000;2023-12-20T12:57:20;95447.63;;;4.15;100.00
62739;BME280;48788;48.074;13.000;2023-12-20T12:59:52;95432.69;;;4.38;100.00
62739;BME280;48788;48.074;13.000;2023-12-20T13:02:24;95431.13;;;4.52;100.00
62739;BME280;48788;48.074;13.000;2023-12-20T13:04:56;95424.00;;;4.60;100.00
62739;BME280;48788;48.074;13.000;2023-12-20T13:07:28;95434.94;;;4.64;100.00
62739;BME280;48788;48.074;13.000;2023-12-20T13:10:05;95434.59;;;4.44;100.00
62739;BME280;48788;48.074;13.000;2023-12-20T13:12:37;95436.41;;;4.43;100.00
62739;BME280;48788;48.074;13.000;2023-12-20T13:15:09;95427.25;;;4.62;100.00
62739;BME280;48788;48.074;13.000;2023-12-20T13:17:40;95424.34;;;4.57;100.00
62739;BME280;48788;48.074;13.000;2023-12-20T13:20:12;95419.38;;;4.62;100.00
62739;BME280;48788;48.074;13.000;2023-12-20T13:22:43;95422.78;;;4.48;100.00